createdAt,value
2023-03-26T02:26:44.154Z,9.76
2023-03-26T02:34:30.845Z,10.55
2023-03-26T02:37:00.638Z,10.90
2023-03-26T02:45:22.128Z,11.39
2023-03-26T02:48:29.036Z,11.75
2023-03-26T02:51:10.057Z,12.25
2023-03-26T02:54:08.197Z,12.46
2023-03-26T02:57:03.440Z,12.38
2023-03-26T02:59:59.170Z,12.79
2023-03-26T03:02:39.424Z,13.11
2023-03-26T03:05:27.877Z,13.19
2023-03-26T03:08:09.413Z,13.59
2023-03-26T03:10:43.259Z,13.48
2023-03-26T03:13:31.972Z,13.82
2023-03-26T03:16:02.148Z,13.89
2023-03-26T03:18:31.657Z,14.31
2023-03-26T03:21:01.788Z,14.06
2023-03-26T03:23:30.739Z,14.17
2023-03-26T03:26:16.472Z,14.03
2023-03-26T03:28:52.314Z,14.20
2023-03-26T03:31:23.573Z,14.30
2023-03-26T03:33:54.158Z,14.11
2023-03-26T03:36:24.441Z,14.52
2023-03-26T03:39:03.167Z,14.64
2023-03-26T03:41:34.142Z,14.76
2023-03-26T03:44:07.026Z,14.70
2023-03-26T03:46:37.131Z,14.74
2023-03-26T03:49:07.112Z,14.77
2023-03-26T03:51:39.279Z,15.08
2023-03-26T03:54:19.317Z,14.68
2023-03-26T03:56:50.074Z,14.78
2023-03-26T03:59:54.515Z,14.97
2023-03-26T04:02:35.800Z,14.79
2023-03-26T04:05:08.239Z,14.75
2023-03-26T04:07:40.730Z,14.81
2023-03-26T04:10:11.148Z,14.61
2023-03-26T04:12:58.362Z,14.53
2023-03-26T04:15:49.440Z,14.48
2023-03-26T04:18:18.770Z,14.18
2023-03-26T04:20:48.277Z,14.27
2023-03-26T04:23:29.986Z,14.29
2023-03-26T04:26:14.301Z,14.31
2023-03-26T04:29:06.765Z,14.30
2023-03-26T04:31:39.211Z,14.23
2023-03-26T04:34:19.322Z,14.34
2023-03-26T04:36:57.003Z,14.02
2023-03-26T04:39:31.379Z,13.78
2023-03-26T04:42:20.894Z,13.94
2023-03-26T04:45:09.589Z,13.81
2023-03-26T04:47:40.994Z,13.58
2023-03-26T04:50:12.871Z,13.57
2023-03-26T04:52:45.109Z,13.62
2023-03-26T04:56:13.120Z,13.64
2023-03-26T04:59:14.522Z,13.67
2023-03-26T05:01:47.537Z,13.58
2023-03-26T05:04:19.541Z,13.69
2023-03-26T05:06:49.603Z,13.59
2023-03-26T05:09:32.086Z,13.58
2023-03-26T05:12:13.331Z,13.32
2023-03-26T05:15:02.259Z,13.07
2023-03-26T05:17:53.736Z,13.16
2023-03-26T05:20:31.973Z,13.23
2023-03-26T05:23:02.388Z,13.22
2023-03-26T05:25:35.658Z,13.53
2023-03-26T05:28:08.685Z,13.47
2023-03-26T05:30:46.586Z,13.64
2023-03-26T05:33:18.776Z,13.78
2023-03-26T05:36:06.487Z,13.48
2023-03-26T05:38:36.740Z,13.42
2023-03-26T05:41:10.103Z,13.44
2023-03-26T05:43:43.332Z,13.50
2023-03-26T05:46:22.793Z,13.58
2023-03-26T05:48:53.067Z,13.40
2023-03-26T05:51:24.305Z,13.72
2023-03-26T05:54:06.416Z,13.67
2023-03-26T05:56:59.250Z,13.81
2023-03-26T05:59:47.236Z,14.25
2023-03-26T06:02:37.156Z,14.56
2023-03-26T06:05:25.220Z,15.13
2023-03-26T06:08:05.921Z,15.10
2023-03-26T06:10:41.207Z,16.41
2023-03-26T06:13:11.179Z,16.10
2023-03-26T06:15:41.721Z,16.20
2023-03-26T06:18:48.835Z,17.20
2023-03-26T06:21:36.272Z,16.08
2023-03-26T06:24:17.318Z,16.61
2023-03-26T06:27:06.367Z,16.48
2023-03-26T06:29:51.040Z,16.80
2023-03-26T06:32:44.840Z,17.69
2023-03-26T06:35:23.669Z,17.57
2023-03-26T06:37:52.653Z,16.50
2023-03-26T06:40:21.281Z,15.52
2023-03-26T06:43:16.492Z,17.66
2023-03-26T06:46:10.871Z,17.75
2023-03-26T06:48:40.905Z,17.31
2023-03-26T06:51:32.110Z,16.95
2023-03-26T06:54:19.889Z,16.27
2023-03-26T06:56:54.920Z,15.11
2023-03-26T06:59:45.969Z,16.74
2023-03-26T07:02:38.351Z,15.35
2023-03-26T07:05:26.043Z,16.92
2023-03-26T07:08:13.266Z,16.86
2023-03-26T07:11:01.176Z,16.44
2023-03-26T07:13:51.207Z,14.66
2023-03-26T07:16:53.202Z,14.30
2023-03-26T07:19:38.929Z,15.73
2023-03-26T07:22:08.625Z,14.24
2023-03-26T07:24:56.093Z,16.89
2023-03-26T07:28:00.636Z,16.40
2023-03-26T07:31:27.454Z,16.56
2023-03-26T07:34:33.557Z,15.32
2023-03-26T07:37:46.382Z,17.16
2023-03-26T07:40:50.168Z,15.27
2023-03-26T07:44:18.586Z,16.70
2023-03-26T07:47:47.960Z,16.82
2023-03-26T07:50:40.296Z,16.24
2023-03-26T07:53:14.006Z,15.36
2023-03-26T07:56:12.855Z,14.97
2023-03-26T07:59:08.457Z,14.65
2023-03-26T08:02:04.045Z,14.69
2023-03-26T08:05:01.897Z,16.15
2023-03-26T08:08:19.519Z,16.11
2023-03-26T08:11:26.582Z,17.73
2023-03-26T08:14:03.130Z,16.37
2023-03-26T08:16:53.041Z,15.92
2023-03-26T08:19:39.563Z,15.61
2023-03-26T08:22:28.951Z,15.39
2023-03-26T08:25:14.465Z,15.66
2023-03-26T08:28:09.275Z,15.86
2023-03-26T08:30:38.653Z,14.76
2023-03-26T08:33:20.554Z,14.66
2023-03-26T08:35:53.874Z,15.08
2023-03-26T08:38:23.733Z,14.76
2023-03-26T08:41:10.629Z,14.74
2023-03-26T08:44:17.918Z,14.92
2023-03-26T08:47:30.871Z,15.47
2023-03-26T08:50:00.036Z,14.54
2023-03-26T08:52:56.589Z,14.67
2023-03-26T08:55:52.989Z,14.43
2023-03-26T08:58:48.758Z,17.03
2023-03-26T09:01:58.165Z,17.57
2023-03-26T09:05:11.815Z,16.54
2023-03-26T09:08:11.787Z,16.58
2023-03-26T09:11:17.368Z,16.26
2023-03-26T09:13:53.914Z,15.71
2023-03-26T09:16:28.813Z,15.48
2023-03-26T09:19:27.196Z,15.64
2023-03-26T09:22:29.890Z,14.67
2023-03-26T09:25:14.409Z,13.89
2023-03-26T09:28:07.704Z,13.53
2023-03-26T09:31:06.542Z,14.96
2023-03-26T09:34:03.107Z,15.27
2023-03-26T09:36:54.730Z,16.95
2023-03-26T09:39:54.560Z,17.33
2023-03-26T09:42:29.413Z,18.26
2023-03-26T09:45:23.754Z,17.98
2023-03-26T09:48:12.527Z,18.71
2023-03-26T09:51:06.594Z,17.41
2023-03-26T09:53:45.936Z,15.86
2023-03-26T09:56:50.665Z,15.19
2023-03-26T09:59:38.190Z,14.30
2023-03-26T10:02:49.609Z,14.00
2023-03-26T10:06:12.844Z,13.59
2023-03-26T10:09:18.412Z,13.34
2023-03-26T10:12:21.646Z,13.10
2023-03-26T10:15:01.817Z,12.65
2023-03-26T10:17:58.104Z,13.86
2023-03-26T10:20:34.789Z,14.25
2023-03-26T10:23:24.853Z,15.15
2023-03-26T10:26:04.700Z,16.19
2023-03-26T10:28:58.706Z,16.93
2023-03-26T10:32:08.204Z,17.22
2023-03-26T10:35:19.807Z,15.53
2023-03-26T10:38:14.409Z,14.86
2023-03-26T10:41:10.475Z,14.62
2023-03-26T10:44:08.477Z,13.83
2023-03-26T10:46:53.318Z,13.50
2023-03-26T10:49:50.345Z,13.08
2023-03-26T10:52:25.326Z,12.74
2023-03-26T10:55:13.176Z,12.53
2023-03-26T10:57:52.311Z,12.35
2023-03-26T11:00:26.512Z,12.22
2023-03-26T11:03:14.545Z,12.15
2023-03-26T11:05:52.578Z,11.94
2023-03-26T11:08:57.307Z,11.85
2023-03-26T11:11:45.948Z,11.53
2023-03-26T11:14:45.127Z,11.18
2023-03-26T11:17:40.884Z,10.96
2023-03-26T11:20:38.209Z,10.99
2023-03-26T11:23:34.263Z,10.91
2023-03-26T11:26:47.389Z,11.05
2023-03-26T11:29:32.172Z,12.06
2023-03-26T11:32:22.138Z,12.14
2023-03-26T11:35:39.353Z,12.55
2023-03-26T11:38:25.226Z,12.71
2023-03-26T11:40:57.413Z,12.80
2023-03-26T11:43:44.125Z,12.35
2023-03-26T11:46:15.937Z,11.58
2023-03-26T11:48:51.832Z,11.64
2023-03-26T11:51:31.602Z,11.88
2023-03-26T11:54:04.326Z,11.79
2023-03-26T11:56:38.908Z,11.64
2023-03-26T11:59:12.266Z,11.62
2023-03-26T12:01:53.591Z,11.47
2023-03-26T12:04:46.680Z,11.36
2023-03-26T12:07:32.730Z,11.25
2023-03-26T12:10:15.477Z,10.96
2023-03-26T12:12:49.949Z,10.84
2023-03-26T12:15:22.584Z,10.41
2023-03-26T12:17:57.285Z,10.44
2023-03-26T12:20:29.386Z,10.24
2023-03-26T12:23:00.817Z,9.98
2023-03-26T12:25:39.188Z,10.01
2023-03-26T12:28:21.850Z,9.75
2023-03-26T12:31:12.999Z,9.68
2023-03-26T12:33:42.659Z,9.25
2023-03-26T12:36:28.399Z,9.39
2023-03-26T12:39:16.402Z,9.37
2023-03-26T12:44:45.206Z,9.25
2023-03-26T12:44:59.334Z,9.23
2023-03-26T12:48:01.102Z,9.13
2023-03-26T12:50:34.127Z,9.05
2023-03-26T12:53:07.307Z,8.93
2023-03-26T12:55:57.468Z,8.29
2023-03-26T12:58:44.437Z,8.67
2023-03-26T13:01:34.118Z,8.18
2023-03-26T13:04:06.008Z,8.43
2023-03-26T13:07:00.887Z,8.33
2023-03-26T13:09:45.809Z,7.95
2023-03-26T13:12:34.911Z,8.07
2023-03-26T13:15:39.622Z,7.90
2023-03-26T13:18:49.084Z,7.84
2023-03-26T13:21:55.600Z,7.70
2023-03-26T13:24:45.193Z,7.46
2023-03-26T13:27:21.141Z,7.48
2023-03-26T13:30:08.968Z,7.47
2023-03-26T13:33:21.797Z,7.40
2023-03-26T13:36:19.277Z,7.40
2023-03-26T13:39:23.646Z,7.33
2023-03-26T13:42:02.002Z,7.24
2023-03-26T13:44:52.767Z,7.21
2023-03-26T13:47:39.573Z,7.19
2023-03-26T13:50:28.976Z,7.15
2023-03-26T13:53:09.090Z,6.94
2023-03-26T13:55:44.884Z,6.94
2023-03-26T13:58:35.101Z,6.97
2023-03-26T14:01:18.962Z,6.97
2023-03-26T14:04:04.443Z,6.96
2023-03-26T14:06:59.946Z,6.94
2023-03-26T14:09:48.331Z,6.87
2023-03-26T14:12:28.071Z,6.67
2023-03-26T14:15:07.897Z,6.61
2023-03-26T14:17:43.409Z,6.69
2023-03-26T14:20:38.347Z,6.55
2023-03-26T14:23:39.034Z,6.67
2023-03-26T14:26:27.868Z,6.57
2023-03-26T14:29:29.954Z,6.65
2023-03-26T14:32:33.325Z,6.66
2023-03-26T14:35:39.985Z,6.70
2023-03-26T14:38:15.993Z,6.70
2023-03-26T14:41:14.515Z,6.74
2023-03-26T14:44:14.795Z,6.63
2023-03-26T14:46:44.651Z,6.78
2023-03-26T14:49:34.553Z,6.76
2023-03-26T14:52:17.384Z,6.69
2023-03-26T14:54:50.967Z,6.64
2023-03-26T14:57:54.530Z,6.73
2023-03-26T15:00:45.448Z,6.69
2023-03-26T15:03:14.687Z,6.66
2023-03-26T15:05:55.337Z,6.67
2023-03-26T15:08:46.010Z,6.72
2023-03-26T15:11:24.288Z,6.75
2023-03-26T15:14:31.205Z,6.71
2023-03-26T15:17:26.785Z,6.73
2023-03-26T15:20:34.469Z,6.71
2023-03-26T15:23:43.837Z,6.75
2023-03-26T15:26:43.259Z,6.53
2023-03-26T15:29:45.524Z,6.46
2023-03-26T15:32:17.614Z,6.41
2023-03-26T15:35:05.115Z,6.25
2023-03-26T15:38:03.972Z,6.21
2023-03-26T15:40:45.926Z,5.98
2023-03-26T15:43:17.722Z,6.04
2023-03-26T15:46:11.642Z,5.92
2023-03-26T15:48:55.780Z,5.99
2023-03-26T15:51:47.025Z,5.98
2023-03-26T15:54:27.366Z,6.02
2023-03-26T15:57:08.405Z,6.01
2023-03-26T16:00:16.526Z,6.08
2023-03-26T16:03:00.753Z,6.06
2023-03-26T16:06:03.772Z,6.28
2023-03-26T16:08:48.370Z,6.36
2023-03-26T16:11:55.868Z,6.43
2023-03-26T16:14:37.808Z,6.50
2023-03-26T16:17:25.769Z,6.47
2023-03-26T16:19:59.931Z,6.58
2023-03-26T16:22:54.165Z,6.61
2023-03-26T16:25:28.986Z,6.69
2023-03-26T16:28:51.628Z,6.70
2023-03-26T16:31:41.421Z,6.78
2023-03-26T16:38:12.092Z,6.71
2023-03-26T16:41:00.143Z,6.47
2023-03-26T16:44:15.693Z,6.24
2023-03-26T16:47:09.488Z,6.45
2023-03-26T16:50:08.505Z,6.42
2023-03-26T16:52:53.148Z,6.39
2023-03-26T16:55:35.926Z,6.32
2023-03-26T16:58:12.972Z,6.06
2023-03-26T17:01:08.611Z,6.04
2023-03-26T17:04:00.765Z,6.23
2023-03-26T17:06:54.749Z,6.34
2023-03-26T17:09:42.594Z,6.34
2023-03-26T17:12:20.562Z,6.35
2023-03-26T17:15:08.510Z,6.40
2023-03-26T17:17:49.849Z,6.45
2023-03-26T17:20:33.906Z,6.46
2023-03-26T17:23:26.337Z,6.39
2023-03-26T17:26:29.506Z,6.30
2023-03-26T17:29:15.729Z,5.99
2023-03-26T17:31:54.029Z,5.91
2023-03-26T17:34:48.127Z,5.72
2023-03-26T17:37:20.781Z,5.63
2023-03-26T17:39:52.654Z,5.57
2023-03-26T17:42:40.167Z,5.42
2023-03-26T17:46:06.035Z,5.33
2023-03-26T17:48:41.962Z,5.06
2023-03-26T17:51:48.263Z,5.17
2023-03-26T17:54:27.306Z,5.18
2023-03-26T17:57:01.985Z,4.99
2023-03-26T17:59:34.723Z,4.89
2023-03-26T18:02:07.891Z,4.88
2023-03-26T18:04:46.074Z,4.59
2023-03-26T18:07:27.370Z,4.73
2023-03-26T18:10:34.409Z,4.60
2023-03-26T18:13:10.791Z,4.54
2023-03-26T18:16:13.102Z,4.76
2023-03-26T18:18:54.303Z,4.66
2023-03-26T18:21:32.316Z,4.84
2023-03-26T18:24:04.504Z,4.92
2023-03-26T18:26:50.725Z,4.87
2023-03-26T18:29:24.872Z,4.99
2023-03-26T18:32:01.500Z,5.06
2023-03-26T18:34:33.142Z,4.86
2023-03-26T18:37:20.499Z,5.07
2023-03-26T18:40:12.941Z,5.07
2023-03-26T18:42:46.563Z,4.84
2023-03-26T18:45:37.693Z,4.89
2023-03-26T18:48:21.980Z,4.83
2023-03-26T18:51:23.731Z,4.74
2023-03-26T18:53:59.241Z,4.68
2023-03-26T18:56:37.841Z,4.62
2023-03-26T18:59:21.885Z,4.57
2023-03-26T19:01:51.773Z,4.44
2023-03-26T19:04:21.088Z,4.52
2023-03-26T19:06:54.909Z,4.31
2023-03-26T19:09:31.518Z,4.27
2023-03-26T19:12:26.230Z,4.63
2023-03-26T19:14:59.551Z,4.66
2023-03-26T19:17:35.569Z,4.43
2023-03-26T19:20:08.542Z,4.53
2023-03-26T19:22:38.673Z,4.42
2023-03-26T19:25:08.797Z,4.08
2023-03-26T19:27:39.708Z,4.29
2023-03-26T19:30:09.874Z,4.39
2023-03-26T19:32:39.368Z,4.42
2023-03-26T19:35:22.980Z,4.51
2023-03-26T19:37:57.990Z,4.71
2023-03-26T19:40:31.167Z,4.77
2023-03-26T19:43:00.392Z,4.87
2023-03-26T19:45:29.406Z,4.88
2023-03-26T19:48:14.156Z,4.89
2023-03-26T19:50:57.981Z,5.09
2023-03-26T19:53:38.627Z,5.10
2023-03-26T19:56:16.008Z,5.10
2023-03-26T19:58:48.007Z,4.82
2023-03-26T20:01:26.448Z,4.85
2023-03-26T20:04:02.414Z,5.01
2023-03-26T20:06:42.395Z,4.74
2023-03-26T20:09:18.470Z,4.88
2023-03-26T20:11:48.569Z,4.91
2023-03-26T20:14:22.885Z,4.99
2023-03-26T20:16:52.262Z,4.97
2023-03-26T20:19:21.630Z,4.87
2023-03-26T20:21:51.026Z,4.97
2023-03-26T20:24:20.822Z,4.96
2023-03-26T20:26:49.927Z,5.01
2023-03-26T20:29:21.500Z,5.03
2023-03-26T20:31:51.419Z,4.95
2023-03-26T20:34:24.796Z,4.99
2023-03-26T20:37:01.138Z,4.83
2023-03-26T20:39:31.098Z,4.61
2023-03-26T20:42:00.107Z,4.36
2023-03-26T20:44:29.490Z,4.17
2023-03-26T20:46:59.920Z,4.02
2023-03-26T20:49:30.937Z,3.62
2023-03-26T20:52:01.197Z,3.73
2023-03-26T20:54:33.017Z,3.88
2023-03-26T20:57:03.257Z,4.02
2023-03-26T20:59:32.498Z,4.04
2023-03-26T21:02:01.637Z,3.98
2023-03-26T21:04:31.026Z,3.75
2023-03-26T21:07:07.123Z,3.76
2023-03-26T21:09:45.860Z,3.71
2023-03-26T21:12:22.422Z,3.63
2023-03-26T21:14:52.569Z,3.52
2023-03-26T21:17:25.723Z,3.58
2023-03-26T21:19:55.623Z,3.61
2023-03-26T21:22:36.834Z,3.81
2023-03-26T21:25:13.577Z,3.71
2023-03-26T21:28:07.023Z,3.71
2023-03-26T21:30:37.012Z,3.74
2023-03-26T21:33:06.889Z,3.72
2023-03-26T21:35:36.701Z,3.67
2023-03-26T21:38:06.613Z,3.96
2023-03-26T21:40:37.047Z,3.87
2023-03-26T21:43:07.566Z,4.03
2023-03-26T21:45:36.721Z,4.02
2023-03-26T21:48:06.778Z,4.13
2023-03-26T21:50:36.710Z,4.01
2023-03-26T21:53:05.984Z,4.01
2023-03-26T21:56:01.662Z,4.05
2023-03-26T21:58:56.765Z,4.29
2023-03-26T22:01:45.024Z,4.30
2023-03-26T22:04:19.842Z,4.37
2023-03-26T22:07:25.015Z,4.47
2023-03-26T22:09:55.441Z,4.42
2023-03-26T22:12:26.774Z,4.85
2023-03-26T22:14:55.939Z,5.02
2023-03-26T22:17:25.218Z,4.99
2023-03-26T22:19:54.951Z,5.10
2023-03-26T22:22:27.029Z,5.26
2023-03-26T22:24:56.660Z,5.55
2023-03-26T22:27:25.702Z,5.60
2023-03-26T22:29:55.241Z,5.34
2023-03-26T22:32:24.248Z,5.46
2023-03-26T22:34:54.073Z,5.28
2023-03-26T22:37:24.816Z,5.59
2023-03-26T22:40:14.969Z,5.54
2023-03-26T22:42:46.308Z,5.44
2023-03-26T22:45:16.240Z,5.31
2023-03-26T22:47:46.262Z,5.31
2023-03-26T22:50:34.783Z,5.37
2023-03-26T22:53:07.634Z,5.28
2023-03-26T22:55:37.189Z,5.35
2023-03-26T22:58:06.484Z,5.37
2023-03-26T23:00:36.080Z,5.44
2023-03-26T23:03:05.933Z,5.22
2023-03-26T23:05:35.990Z,5.13
2023-03-26T23:08:05.762Z,5.25
2023-03-26T23:10:35.327Z,5.26
2023-03-26T23:13:04.789Z,5.18
2023-03-26T23:15:33.821Z,5.23
2023-03-26T23:18:04.658Z,5.28
2023-03-26T23:20:39.499Z,5.12
2023-03-26T23:23:08.696Z,4.89
2023-03-26T23:25:38.158Z,5.31
2023-03-26T23:28:07.990Z,5.05
2023-03-26T23:30:37.413Z,5.11
2023-03-26T23:33:06.378Z,5.08
2023-03-26T23:35:37.181Z,4.95
2023-03-26T23:38:08.013Z,5.13
2023-03-26T23:40:37.293Z,5.01
2023-03-26T23:43:06.614Z,5.16
2023-03-26T23:45:35.518Z,4.99
2023-03-26T23:48:06.021Z,4.93
2023-03-26T23:50:38.703Z,5.12
2023-03-26T23:53:08.197Z,5.22
2023-03-26T23:55:37.186Z,5.46
2023-03-26T23:58:06.387Z,5.56
